Dew Point Data


Current

Temp 44.0 F. Dew Point 33.1 F.


Dew Point Comfort Scale

dewpoints

Date, Time Temperature Dew Point
Sat Feb 23 00:08:06 2019 44.0 F. 37.0 F.
Sat Feb 23 01:08:05 2019 44.0 F. 37.0 F.
Sat Feb 23 02:08:05 2019 44.0 F. 37.9 F.
Sat Feb 23 03:08:04 2019 44.0 F. 39.0 F.
Sat Feb 23 04:08:05 2019 44.0 F. 39.0 F.
Sat Feb 23 05:08:05 2019 44.0 F. 39.9 F.
Sat Feb 23 06:08:04 2019 44.0 F. 39.9 F.
Sat Feb 23 07:08:05 2019 43.0 F. 39.9 F.
Sat Feb 23 08:08:05 2019 44.0 F. 41.0 F.
Sat Feb 23 09:08:07 2019 45.0 F. 42.1 F.
Sat Feb 23 10:08:05 2019 46.0 F. 43.0 F.
Sat Feb 23 11:08:05 2019 48.0 F. 46.0 F.
Sat Feb 23 12:08:05 2019 48.0 F. 46.0 F.
Sat Feb 23 13:08:05 2019 51.0 F. 48.9 F.
Sat Feb 23 14:08:17 2019 51.0 F. 48.9 F.
Sat Feb 23 15:08:05 2019 44.0 F. 41.0 F.
Sat Feb 23 16:08:05 2019 44.0 F. 41.0 F.
Sat Feb 23 17:08:05 2019 51.0 F. 48.9 F.
Sat Feb 23 18:08:05 2019 51.0 F. 48.9 F.
Sat Feb 23 19:08:06 2019 51.0 F. 48.9 F.
Sat Feb 23 20:08:08 2019 61.0 F. 57.0 F.
Sat Feb 23 21:08:06 2019 59.0 F. 55.9 F.
Sat Feb 23 22:08:05 2019 44.0 F. 41.0 F.
Sat Feb 23 23:08:05 2019 44.0 F. 41.0 F.
Sun Feb 24 00:08:05 2019 56.0 F. 48.9 F.
Sun Feb 24 01:08:05 2019 59.0 F. 55.9 F.
Sun Feb 24 02:08:05 2019 59.0 F. 55.9 F.
Sun Feb 24 03:08:05 2019 43.0 F. 33.1 F.
Sun Feb 24 04:08:05 2019 43.0 F. 33.1 F.
Sun Feb 24 05:08:05 2019 40.0 F. 28.0 F.
Sun Feb 24 06:08:05 2019 39.0 F. 27.0 F.
Sun Feb 24 07:08:05 2019 38.0 F. 28.0 F.
Sun Feb 24 08:08:05 2019 38.0 F. 28.0 F.
Sun Feb 24 09:08:07 2019 38.0 F. 28.0 F.
Sun Feb 24 10:08:05 2019 40.0 F. 23.0 F.
Sun Feb 24 11:08:16 2019 42.0 F. 23.0 F.
Sun Feb 24 12:08:05 2019 45.0 F. 21.9 F.
Sun Feb 24 13:08:05 2019 46.0 F. 21.9 F.
Sun Feb 24 14:08:05 2019 47.0 F. 19.9 F.
Sun Feb 24 15:08:19 2019 47.0 F. 18.0 F.
Sun Feb 24 16:08:28 2019 47.0 F. 19.0 F.
Sun Feb 24 17:08:06 2019 45.0 F. 18.0 F.
Sun Feb 24 18:08:05 2019 43.0 F. 16.0 F.
Sun Feb 24 19:08:05 2019 40.0 F. 16.0 F.
Sun Feb 24 20:08:09 2019 38.0 F. 18.0 F.
Sun Feb 24 21:08:05 2019 36.0 F. 19.0 F.
Sun Feb 24 22:08:05 2019 35.0 F. 18.0 F.
Sun Feb 24 23:08:05 2019 35.0 F. 18.0 F.
Mon Feb 25 00:08:05 2019 33.0 F. 18.0 F.
Mon Feb 25 01:08:04 2019 33.0 F. 18.0 F.
Mon Feb 25 02:08:05 2019 29.0 F. 19.0 F.
Mon Feb 25 03:08:05 2019 28.0 F. 19.9 F.
Mon Feb 25 04:08:04 2019 26.0 F. 18.0 F.
Mon Feb 25 05:08:05 2019 25.0 F. 17.1 F.
Mon Feb 25 06:08:05 2019 25.0 F. 16.0 F.
Mon Feb 25 07:08:05 2019 25.0 F. 16.0 F.
Mon Feb 25 08:08:05 2019 26.0 F. 15.1 F.
Mon Feb 25 09:08:05 2019 29.0 F. 18.0 F.
Mon Feb 25 10:08:05 2019 30.0 F. 17.1 F.
Mon Feb 25 11:08:59 2019
Mon Feb 25 12:09:00 2019
Mon Feb 25 13:09:00 2019
Mon Feb 25 14:09:00 2019
Mon Feb 25 15:09:00 2019
Mon Feb 25 16:09:00 2019
Mon Feb 25 17:08:15 2019 45.0 F. 24.1 F.
Mon Feb 25 18:08:15 2019 41.0 F. 24.1 F.
Mon Feb 25 19:08:15 2019 37.0 F. 26.1 F.
Mon Feb 25 20:08:16 2019 36.0 F. 24.1 F.
Mon Feb 25 21:08:15 2019 34.0 F. 26.1 F.
Mon Feb 25 22:08:15 2019 32.0 F. 27.0 F.
Mon Feb 25 23:08:15 2019 30.0 F. 26.1 F.
Tue Feb 26 00:08:07 2019 31.0 F. 25.0 F.
Tue Feb 26 01:08:05 2019 30.0 F. 26.1 F.
Tue Feb 26 02:08:05 2019 28.0 F. 25.0 F.
Tue Feb 26 03:08:04 2019 28.0 F. 24.1 F.
Tue Feb 26 04:08:04 2019 28.0 F. 24.1 F.
Tue Feb 26 05:08:05 2019 26.0 F. 24.1 F.
Tue Feb 26 06:08:05 2019 27.0 F. 25.0 F.
Tue Feb 26 07:08:06 2019 26.0 F. 24.1 F.
Tue Feb 26 08:08:07 2019 31.0 F. 28.0 F.
Tue Feb 26 09:08:04 2019 37.0 F. 30.0 F.
Tue Feb 26 10:08:37 2019
Tue Feb 26 11:08:40 2019
Tue Feb 26 12:08:40 2019
Tue Feb 26 13:08:15 2019 55.0 F. 30.9 F.
Tue Feb 26 14:08:15 2019 56.0 F. 30.0 F.
Tue Feb 26 15:08:15 2019 58.0 F. 30.0 F.
Tue Feb 26 16:08:15 2019 58.0 F. 30.9 F.
Tue Feb 26 17:08:15 2019 56.0 F. 32.0 F.
Tue Feb 26 18:08:15 2019 51.0 F. 30.9 F.
Tue Feb 26 19:08:15 2019 50.0 F. 28.0 F.
Tue Feb 26 20:08:15 2019 44.0 F. 28.9 F.
Tue Feb 26 21:08:15 2019 43.0 F. 28.9 F.
Tue Feb 26 22:08:15 2019 40.0 F. 33.1 F.
Tue Feb 26 23:08:16 2019 36.0 F. 32.0 F.
Wed Feb 27 00:08:15 2019 36.0 F. 30.9 F.
Wed Feb 27 01:08:15 2019 34.0 F. 30.9 F.
Wed Feb 27 02:08:15 2019 34.0 F. 30.9 F.
Wed Feb 27 03:08:15 2019 37.0 F. 34.0 F.
Wed Feb 27 04:08:15 2019 38.0 F. 33.1 F.
Wed Feb 27 05:08:15 2019 36.0 F. 32.0 F.
Wed Feb 27 06:08:15 2019 39.0 F. 34.0 F.
Wed Feb 27 07:08:15 2019 42.0 F. 35.1 F.
Wed Feb 27 08:08:15 2019 47.0 F. 39.0 F.
Wed Feb 27 09:08:15 2019 50.0 F. 42.1 F.
Wed Feb 27 10:08:14 2019 54.0 F. 44.1 F.
Wed Feb 27 11:08:15 2019 54.0 F. 43.0 F.
Wed Feb 27 12:08:15 2019 55.0 F. 44.1 F.
Wed Feb 27 13:08:15 2019 49.0 F. 37.9 F.
Wed Feb 27 14:08:16 2019 47.0 F. 35.1 F.
Wed Feb 27 15:08:15 2019 45.0 F. 35.1 F.
Wed Feb 27 16:08:15 2019 44.0 F. 34.0 F.
Wed Feb 27 17:08:16 2019 41.0 F. 33.1 F.
Wed Feb 27 18:08:15 2019 38.0 F. 32.0 F.
Wed Feb 27 19:08:15 2019 37.0 F. 30.0 F.
Wed Feb 27 20:08:15 2019 35.0 F. 30.0 F.
Wed Feb 27 21:08:15 2019 34.0 F. 30.9 F.
Wed Feb 27 22:08:15 2019 32.0 F. 28.0 F.
Wed Feb 27 23:08:15 2019 32.0 F. 27.0 F.
Thu Feb 28 00:08:15 2019 31.0 F. 26.1 F.
Thu Feb 28 01:08:15 2019 30.0 F. 25.0 F.
Thu Feb 28 02:08:15 2019 29.0 F. 25.0 F.
Thu Feb 28 03:08:14 2019 29.0 F. 25.0 F.
Thu Feb 28 04:08:15 2019 29.0 F. 23.0 F.
Thu Feb 28 05:08:15 2019 29.0 F. 23.0 F.
Thu Feb 28 06:08:15 2019 28.0 F. 24.1 F.
Thu Feb 28 07:08:15 2019 28.0 F. 24.1 F.
Thu Feb 28 08:08:15 2019 28.0 F. 23.0 F.
Thu Feb 28 09:08:15 2019 27.0 F. 23.0 F.
Thu Feb 28 10:08:15 2019 27.0 F. 25.0 F.
Thu Feb 28 11:08:15 2019 28.0 F. 26.1 F.
Thu Feb 28 12:08:15 2019 28.0 F. 26.1 F.
Thu Feb 28 13:08:14 2019 28.0 F. 26.1 F.
Thu Feb 28 14:08:16 2019 28.0 F. 26.1 F.
Thu Feb 28 15:08:15 2019 28.0 F. 26.1 F.
Thu Feb 28 16:08:16 2019 28.0 F. 26.1 F.
Thu Feb 28 17:08:15 2019 28.0 F. 27.0 F.
Thu Feb 28 18:08:15 2019 29.0 F. 27.0 F.
Thu Feb 28 19:08:15 2019 29.0 F. 28.0 F.
Thu Feb 28 20:08:15 2019 29.0 F. 28.0 F.
Thu Feb 28 21:08:15 2019 30.0 F. 28.0 F.
Thu Feb 28 22:08:15 2019 30.0 F. 28.9 F.
Thu Feb 28 23:08:15 2019 30.0 F. 28.0 F.
Fri Mar 1 00:08:15 2019 29.0 F. 28.0 F.
Fri Mar 1 01:08:15 2019 30.0 F. 28.0 F.
Fri Mar 1 02:08:15 2019 30.0 F. 28.0 F.
Fri Mar 1 03:08:15 2019 29.0 F. 28.0 F.
Fri Mar 1 04:08:15 2019 30.0 F. 28.0 F.
Fri Mar 1 05:08:15 2019 30.0 F. 28.0 F.
Fri Mar 1 06:08:15 2019 30.0 F. 28.0 F.
Fri Mar 1 07:08:15 2019 30.0 F. 28.0 F.
Fri Mar 1 08:08:14 2019 30.0 F. 28.9 F.
Fri Mar 1 09:08:14 2019 31.0 F. 28.9 F.
Fri Mar 1 10:08:15 2019 32.0 F. 30.0 F.
Fri Mar 1 11:08:15 2019 34.0 F. 30.9 F.
Fri Mar 1 12:08:15 2019 34.0 F. 30.9 F.
Fri Mar 1 13:08:15 2019 36.0 F. 32.0 F.
Fri Mar 1 14:08:14 2019 37.0 F. 32.0 F.
Fri Mar 1 15:08:15 2019 39.0 F. 33.1 F.
Fri Mar 1 16:08:15 2019 39.0 F. 33.1 F.
Fri Mar 1 17:08:16 2019 39.0 F. 33.1 F.
Fri Mar 1 18:08:15 2019 38.0 F. 33.1 F.
Fri Mar 1 19:08:15 2019 37.0 F. 34.0 F.
Fri Mar 1 20:08:15 2019 37.0 F. 33.1 F.
Fri Mar 1 21:08:15 2019 37.0 F. 34.0 F.
Fri Mar 1 22:08:15 2019 37.0 F. 33.1 F.
Fri Mar 1 23:08:15 2019 37.0 F. 33.1 F.
Sat Mar 2 00:08:15 2019 37.0 F. 33.1 F.
Sat Mar 2 01:08:15 2019 37.0 F. 33.1 F.
Sat Mar 2 02:08:15 2019 37.0 F. 33.1 F.
Sat Mar 2 03:08:15 2019 37.0 F. 32.0 F.
Sat Mar 2 04:08:15 2019 37.0 F. 32.0 F.
Sat Mar 2 05:08:14 2019 37.0 F. 32.0 F.
Sat Mar 2 06:08:15 2019 36.0 F. 33.1 F.
Sat Mar 2 07:08:15 2019 37.0 F. 32.0 F.
Sat Mar 2 08:08:15 2019 37.0 F. 32.0 F.
Sat Mar 2 09:08:15 2019 38.0 F. 32.0 F.
Sat Mar 2 10:08:15 2019 39.0 F. 32.0 F.
Sat Mar 2 11:08:15 2019 38.0 F. 30.9 F.
Sat Mar 2 12:08:15 2019 38.0 F. 30.9 F.
Sat Mar 2 13:08:14 2019 38.0 F. 30.9 F.
Sat Mar 2 14:08:15 2019 38.0 F. 30.0 F.
Sat Mar 2 15:08:15 2019 38.0 F. 30.0 F.
Sat Mar 2 16:08:15 2019 39.0 F. 28.9 F.
Sat Mar 2 17:08:15 2019 38.0 F. 28.9 F.
Sat Mar 2 18:08:15 2019 37.0 F. 28.0 F.
Sat Mar 2 19:08:15 2019 37.0 F. 28.0 F.
Sat Mar 2 20:08:15 2019 36.0 F. 28.0 F.
Sat Mar 2 21:08:15 2019 35.0 F. 28.0 F.
Sat Mar 2 22:08:15 2019 35.0 F. 27.0 F.
Sat Mar 2 23:08:15 2019 34.0 F. 27.0 F.
Sun Mar 3 00:08:15 2019 33.0 F. 25.0 F.
Sun Mar 3 01:08:16 2019 33.0 F. 25.0 F.
Sun Mar 3 02:08:15 2019 33.0 F. 25.0 F.
Sun Mar 3 03:08:14 2019 32.0 F. 25.0 F.
Sun Mar 3 04:08:14 2019 32.0 F. 25.0 F.
Sun Mar 3 05:08:14 2019 32.0 F. 25.0 F.
Sun Mar 3 06:08:15 2019 31.0 F. 26.1 F.
Sun Mar 3 07:08:15 2019 30.0 F. 28.0 F.
Sun Mar 3 08:08:15 2019 30.0 F. 27.0 F.
Sun Mar 3 09:08:15 2019 30.0 F. 25.0 F.
Sun Mar 3 10:08:15 2019 29.0 F. 27.0 F.
Sun Mar 3 11:08:16 2019 29.0 F. 26.1 F.
Sun Mar 3 12:08:15 2019 30.0 F. 24.1 F.
Sun Mar 3 13:08:15 2019 29.0 F. 23.0 F.
Sun Mar 3 14:08:15 2019 29.0 F. 23.0 F.
Sun Mar 3 15:08:16 2019 27.0 F. 19.9 F.
Sun Mar 3 16:08:15 2019 27.0 F. 19.9 F.
Sun Mar 3 17:08:15 2019 26.0 F. 19.9 F.
Sun Mar 3 18:08:07 2019 23.0 F. 16.0 F.
Sun Mar 3 19:08:06 2019 22.0 F. 15.1 F.
Sun Mar 3 20:08:05 2019 20.0 F. 12.0 F.
Sun Mar 3 21:08:05 2019 18.0 F. 8.1 F.
Sun Mar 3 22:08:05 2019 17.0 F. 7.0 F.
Sun Mar 3 23:08:06 2019 15.0 F. 3.0 F.
Mon Mar 4 00:08:05 2019 14.0 F. 3.0 F.
Mon Mar 4 01:08:05 2019 13.0 F. 1.9 F.
Mon Mar 4 02:08:05 2019 11.0 F. -2.0 F.
Mon Mar 4 03:08:05 2019 10.0 F. -0.9 F.
Mon Mar 4 04:08:04 2019 9.0 F. -2.9 F.
Mon Mar 4 05:08:05 2019 9.0 F. -2.0 F.
Mon Mar 4 06:08:05 2019 8.0 F. -2.0 F.
Mon Mar 4 07:08:05 2019 8.0 F. -0.9 F.
Mon Mar 4 08:08:05 2019 9.0 F. -2.0 F.
Mon Mar 4 09:08:05 2019 10.0 F. -0.0 F.
Mon Mar 4 10:08:05 2019 11.0 F. -0.0 F.
Mon Mar 4 11:08:05 2019 13.0 F. 1.9 F.
Mon Mar 4 12:08:05 2019 15.0 F. 3.9 F.
Mon Mar 4 13:08:05 2019 17.0 F. 5.0 F.
Mon Mar 4 14:08:05 2019 18.0 F. 5.0 F.
Mon Mar 4 15:08:05 2019 18.0 F. 5.0 F.
Mon Mar 4 16:08:05 2019 21.0 F. 5.0 F.
Mon Mar 4 17:08:05 2019 21.0 F. 5.0 F.
Mon Mar 4 18:08:06 2019 20.0 F. 6.1 F.
Mon Mar 4 19:08:06 2019 18.0 F. 6.1 F.
Mon Mar 4 20:08:05 2019 17.0 F. 7.0 F.
Mon Mar 4 21:08:10 2019 18.0 F. 7.0 F.
Mon Mar 4 22:08:07 2019 17.0 F. 7.0 F.
Mon Mar 4 23:08:06 2019 14.0 F. 9.0 F.
Tue Mar 5 00:08:06 2019 17.0 F. 5.0 F.
Tue Mar 5 01:08:05 2019 16.0 F. 3.9 F.
Tue Mar 5 02:08:04 2019 15.0 F. 3.9 F.
Tue Mar 5 03:08:05 2019 15.0 F. 3.0 F.
Tue Mar 5 04:08:04 2019 14.0 F. 3.9 F.
Tue Mar 5 05:08:05 2019 14.0 F. 3.0 F.
Tue Mar 5 06:08:05 2019 13.0 F. 3.9 F.
Tue Mar 5 07:08:05 2019 13.0 F. 3.9 F.
Tue Mar 5 08:08:05 2019 16.0 F. 3.9 F.
Tue Mar 5 09:08:06 2019 19.0 F. 7.0 F.
Tue Mar 5 10:08:05 2019 21.0 F. 7.0 F.
Tue Mar 5 11:08:04 2019 25.0 F. 8.1 F.
Tue Mar 5 12:08:07 2019 27.0 F. 10.0 F.
Tue Mar 5 13:08:05 2019 29.0 F. 12.0 F.
Tue Mar 5 14:08:40 2019
Tue Mar 5 15:08:59 2019
Tue Mar 5 16:09:00 2019
Tue Mar 5 17:09:00 2019
Tue Mar 5 18:08:51 2019
Tue Mar 5 19:09:01 2019
Tue Mar 5 20:08:59 2019
Tue Mar 5 21:08:59 2019
Tue Mar 5 22:09:00 2019
Tue Mar 5 23:08:29 2019 20.0 F. 10.0 F.
Wed Mar 6 00:08:59 2019
Wed Mar 6 01:09:00 2019
Wed Mar 6 02:09:00 2019
Wed Mar 6 03:09:00 2019
Wed Mar 6 04:09:00 2019
Wed Mar 6 05:08:59 2019
Wed Mar 6 06:09:00 2019
Wed Mar 6 07:09:00 2019
Wed Mar 6 08:08:15 2019 20.0 F. 10.0 F.
Wed Mar 6 09:08:29 2019 22.0 F. 8.1 F.
Wed Mar 6 10:09:00 2019
Wed Mar 6 11:08:37 2019
Wed Mar 6 12:08:15 2019 28.0 F. 12.0 F.
Wed Mar 6 13:08:15 2019 31.0 F. 10.9 F.
Wed Mar 6 14:09:06 2019
Wed Mar 6 15:08:15 2019 34.0 F. 12.0 F.
Wed Mar 6 16:08:15 2019 34.0 F. 10.9 F.
Wed Mar 6 17:08:15 2019 33.0 F. 14.0 F.
Wed Mar 6 18:08:15 2019 32.0 F. 15.1 F.
Wed Mar 6 19:08:16 2019 31.0 F. 16.0 F.
Wed Mar 6 20:08:15 2019 31.0 F. 17.1 F.
Wed Mar 6 21:08:15 2019 31.0 F. 17.1 F.
Wed Mar 6 22:08:15 2019 30.0 F. 18.0 F.
Wed Mar 6 23:08:15 2019 30.0 F. 19.0 F.
Thu Mar 7 00:08:15 2019 30.0 F. 19.9 F.
Thu Mar 7 01:08:15 2019 31.0 F. 19.9 F.
Thu Mar 7 02:08:15 2019 31.0 F. 19.9 F.
Thu Mar 7 03:08:15 2019 31.0 F. 19.9 F.
Thu Mar 7 04:08:15 2019 31.0 F. 19.9 F.
Thu Mar 7 05:08:14 2019 29.0 F. 21.9 F.
Thu Mar 7 06:08:15 2019 29.0 F. 23.0 F.
Thu Mar 7 07:08:15 2019 30.0 F. 21.9 F.
Thu Mar 7 08:08:15 2019 32.0 F. 21.9 F.
Thu Mar 7 09:08:15 2019 36.0 F. 23.0 F.
Thu Mar 7 10:08:16 2019 40.0 F. 23.0 F.
Thu Mar 7 11:08:16 2019 39.0 F. 21.0 F.
Thu Mar 7 12:08:15 2019 40.0 F. 21.9 F.
Thu Mar 7 13:08:16 2019 39.0 F. 19.0 F.
Thu Mar 7 14:08:15 2019 39.0 F. 19.9 F.
Thu Mar 7 15:08:16 2019 39.0 F. 21.0 F.
Thu Mar 7 16:08:15 2019 39.0 F. 21.9 F.
Thu Mar 7 17:08:15 2019 39.0 F. 21.0 F.
Thu Mar 7 18:08:15 2019 38.0 F. 19.9 F.
Thu Mar 7 19:08:17 2019 38.0 F. 21.9 F.
Thu Mar 7 20:08:15 2019 35.0 F. 27.0 F.
Thu Mar 7 21:08:15 2019 33.0 F. 30.0 F.
Thu Mar 7 22:08:15 2019 33.0 F. 30.9 F.
Thu Mar 7 23:08:16 2019 34.0 F. 30.9 F.
Fri Mar 8 00:08:14 2019 33.0 F. 30.9 F.
Fri Mar 8 01:08:15 2019 34.0 F. 30.9 F.
Fri Mar 8 02:08:15 2019 34.0 F. 30.9 F.
Fri Mar 8 03:08:15 2019 34.0 F. 32.0 F.
Fri Mar 8 04:08:15 2019 34.0 F. 32.0 F.
Fri Mar 8 05:08:15 2019 34.0 F. 32.0 F.
Fri Mar 8 06:08:15 2019 35.0 F. 32.0 F.
Fri Mar 8 07:08:15 2019 35.0 F. 33.1 F.
Fri Mar 8 08:08:16 2019 35.0 F. 33.1 F.
Fri Mar 8 09:08:15 2019 36.0 F. 34.0 F.
Fri Mar 8 10:08:15 2019 38.0 F. 36.0 F.
Fri Mar 8 11:08:14 2019 41.0 F. 37.9 F.
Fri Mar 8 12:08:15 2019 44.0 F. 37.9 F.
Fri Mar 8 13:08:15 2019 44.0 F. 37.9 F.
Fri Mar 8 14:08:15 2019 46.0 F. 39.0 F.
Fri Mar 8 15:08:15 2019 46.0 F. 39.0 F.
Fri Mar 8 16:08:15 2019 46.0 F. 39.0 F.
Fri Mar 8 17:08:16 2019 46.0 F. 37.9 F.
Fri Mar 8 18:08:15 2019 45.0 F. 37.9 F.
Fri Mar 8 19:08:16 2019 44.0 F. 37.9 F.
Fri Mar 8 20:08:16 2019 44.0 F. 37.9 F.
Fri Mar 8 21:08:15 2019 43.0 F. 37.9 F.
Fri Mar 8 22:08:15 2019 43.0 F. 37.9 F.
Fri Mar 8 23:08:15 2019 41.0 F. 37.0 F.
Sat Mar 9 00:08:15 2019 42.0 F. 37.9 F.
Sat Mar 9 01:08:15 2019 42.0 F. 37.9 F.
Sat Mar 9 02:08:14 2019 42.0 F. 37.9 F.
Sat Mar 9 03:08:15 2019 41.0 F. 37.9 F.
Sat Mar 9 04:08:15 2019 41.0 F. 37.9 F.
Sat Mar 9 05:08:14 2019 40.0 F. 37.9 F.
Sat Mar 9 06:08:15 2019 40.0 F. 39.0 F.
Sat Mar 9 07:08:15 2019 40.0 F. 39.0 F.
Sat Mar 9 08:08:15 2019 41.0 F. 39.9 F.
Sat Mar 9 09:08:16 2019 42.0 F. 41.0 F.
Sat Mar 9 10:08:15 2019 44.0 F. 43.0 F.
Sat Mar 9 11:08:15 2019 46.0 F. 45.0 F.
Sat Mar 9 12:08:16 2019 52.0 F. 51.1 F.
Sat Mar 9 13:08:15 2019 55.0 F. 53.1 F.
Sat Mar 9 14:08:15 2019 57.0 F. 55.9 F.
Sat Mar 9 15:08:14 2019 64.0 F. 59.0 F.
Sat Mar 9 16:08:15 2019 64.0 F. 59.0 F.
Sat Mar 9 17:08:15 2019 65.0 F. 54.0 F.
Sat Mar 9 18:08:15 2019 63.0 F. 55.0 F.
Sat Mar 9 19:08:15 2019 62.0 F. 54.0 F.
Sat Mar 9 20:08:15 2019 59.0 F. 42.1 F.
Sat Mar 9 21:08:07 2019 56.0 F. 42.1 F.
Sat Mar 9 22:08:05 2019 53.0 F. 41.0 F.
Sat Mar 9 23:08:05 2019 51.0 F. 37.9 F.
Sun Mar 10 00:08:06 2019 49.0 F. 37.0 F.
Sun Mar 10 01:08:05 2019 47.0 F. 36.0 F.
Sun Mar 10 03:08:05 2019 45.0 F. 34.0 F.
Sun Mar 10 04:08:04 2019 44.0 F. 34.0 F.
Sun Mar 10 05:08:05 2019 43.0 F. 33.1 F.
Sun Mar 10 06:08:05 2019 41.0 F. 33.1 F.
Sun Mar 10 07:08:05 2019 41.0 F. 30.9 F.
Sun Mar 10 08:08:06 2019 39.0 F. 30.0 F.
Sun Mar 10 09:08:05 2019 40.0 F. 30.0 F.
Sun Mar 10 10:08:06 2019 41.0 F. 28.9 F.
Sun Mar 10 11:08:06 2019 42.0 F. 30.0 F.
Sun Mar 10 12:08:08 2019 44.0 F. 30.0 F.
Sun Mar 10 13:08:05 2019 46.0 F. 32.0 F.
Sun Mar 10 14:08:05 2019 47.0 F. 32.0 F.
Sun Mar 10 15:08:05 2019 49.0 F. 33.1 F.
Sun Mar 10 16:08:05 2019 49.0 F. 32.0 F.
Sun Mar 10 17:08:05 2019 48.0 F. 32.0 F.
Sun Mar 10 18:08:05 2019 47.0 F. 32.0 F.
Sun Mar 10 19:08:05 2019 45.0 F. 33.1 F.
Sun Mar 10 20:08:06 2019 45.0 F. 34.0 F.
Sun Mar 10 21:08:05 2019 44.0 F. 34.0 F.
Sun Mar 10 22:08:06 2019 43.0 F. 34.0 F.
Sun Mar 10 23:08:05 2019 42.0 F. 37.0 F.
Mon Mar 11 00:08:05 2019 43.0 F. 34.0 F.
Mon Mar 11 01:08:05 2019 42.0 F. 33.1 F.
Mon Mar 11 02:08:05 2019 42.0 F. 34.0 F.
Mon Mar 11 03:08:05 2019 42.0 F. 34.0 F.
Mon Mar 11 04:08:04 2019 40.0 F. 35.1 F.
Mon Mar 11 05:08:04 2019 40.0 F. 35.1 F.
Mon Mar 11 06:08:05 2019 40.0 F. 32.0 F.
Mon Mar 11 07:08:04 2019 39.0 F. 30.9 F.
Mon Mar 11 08:08:05 2019 39.0 F. 30.9 F.
Mon Mar 11 09:08:07 2019 40.0 F. 30.9 F.
Mon Mar 11 10:08:05 2019 41.0 F. 30.0 F.
Mon Mar 11 11:08:06 2019 42.0 F. 30.0 F.
Mon Mar 11 12:08:05 2019 42.0 F. 28.9 F.
Mon Mar 11 13:08:05 2019 44.0 F. 28.0 F.
Mon Mar 11 14:08:05 2019 44.0 F. 28.9 F.
Mon Mar 11 15:08:05 2019 46.0 F. 26.1 F.
Mon Mar 11 16:08:05 2019 47.0 F. 28.9 F.
Mon Mar 11 17:08:06 2019 48.0 F. 28.0 F.
Mon Mar 11 18:08:05 2019 47.0 F. 28.9 F.
Mon Mar 11 19:08:05 2019 45.0 F. 25.0 F.
Mon Mar 11 20:08:05 2019 42.0 F. 24.1 F.
Mon Mar 11 21:08:05 2019 38.0 F. 26.1 F.
Mon Mar 11 22:08:06 2019 37.0 F. 27.0 F.
Mon Mar 11 23:08:05 2019 36.0 F. 30.0 F.
Tue Mar 12 00:08:05 2019 34.0 F. 28.9 F.
Tue Mar 12 01:08:05 2019 32.0 F. 30.0 F.
Tue Mar 12 02:08:04 2019 32.0 F. 28.9 F.
Tue Mar 12 03:08:05 2019 32.0 F. 30.0 F.
Tue Mar 12 04:08:05 2019 30.0 F. 28.0 F.
Tue Mar 12 05:08:05 2019 30.0 F. 28.9 F.
Tue Mar 12 06:08:06 2019 30.0 F. 28.0 F.
Tue Mar 12 07:08:05 2019 30.0 F. 28.9 F.
Tue Mar 12 08:08:06 2019 32.0 F. 28.9 F.
Tue Mar 12 09:08:07 2019 34.0 F. 30.9 F.
Tue Mar 12 10:08:06 2019 38.0 F. 32.0 F.
Tue Mar 12 11:08:05 2019 42.0 F. 30.9 F.
Tue Mar 12 12:08:04 2019 45.0 F. 33.1 F.
Tue Mar 12 13:08:05 2019 48.0 F. 30.9 F.
Tue Mar 12 14:08:37 2019 50.0 F. 30.9 F.
Tue Mar 12 15:08:05 2019 51.0 F. 33.1 F.
Tue Mar 12 16:08:05 2019 53.0 F. 30.0 F.
Tue Mar 12 17:08:05 2019 52.0 F. 30.9 F.
Tue Mar 12 18:08:05 2019 51.0 F. 30.9 F.
Tue Mar 12 19:08:05 2019 50.0 F. 34.0 F.
Tue Mar 12 20:08:05 2019 48.0 F. 37.9 F.
Tue Mar 12 21:08:05 2019 47.0 F. 41.0 F.
Tue Mar 12 22:08:05 2019 45.0 F. 39.0 F.
Tue Mar 12 23:08:05 2019 46.0 F. 37.9 F.
Wed Mar 13 00:08:05 2019 49.0 F. 36.0 F.
Wed Mar 13 01:08:04 2019 50.0 F. 35.1 F.
Wed Mar 13 02:08:04 2019 50.0 F. 35.1 F.
Wed Mar 13 03:08:05 2019 50.0 F. 37.0 F.
Wed Mar 13 04:08:04 2019 50.0 F. 36.0 F.
Wed Mar 13 05:08:04 2019 52.0 F. 37.9 F.
Wed Mar 13 06:08:06 2019 53.0 F. 39.9 F.
Wed Mar 13 07:08:05 2019 53.0 F. 39.9 F.
Wed Mar 13 08:08:05 2019 52.0 F. 41.0 F.
Wed Mar 13 09:08:04 2019 55.0 F. 42.1 F.
Wed Mar 13 10:08:07 2019 58.0 F. 44.1 F.
Wed Mar 13 11:08:05 2019 58.0 F. 46.0 F.
Wed Mar 13 12:08:07 2019 62.0 F. 48.9 F.
Wed Mar 13 13:08:05 2019 64.0 F. 51.1 F.
Wed Mar 13 14:08:05 2019 68.0 F. 52.0 F.
Wed Mar 13 15:08:06 2019 67.0 F. 53.1 F.
Wed Mar 13 16:08:05 2019 67.0 F. 54.0 F.
Wed Mar 13 17:08:06 2019 68.0 F. 54.0 F.
Wed Mar 13 18:08:40 2019
Wed Mar 13 19:08:05 2019 68.0 F. 55.0 F.
Wed Mar 13 20:08:05 2019 67.0 F. 57.0 F.
Wed Mar 13 21:08:05 2019 63.0 F. 57.9 F.
Wed Mar 13 22:08:05 2019 61.0 F. 59.0 F.
Wed Mar 13 23:08:05 2019 60.0 F. 60.1 F.
Thu Mar 14 00:08:06 2019 60.0 F. 57.9 F.
Thu Mar 14 01:08:05 2019 60.0 F. 57.9 F.
Thu Mar 14 02:08:05 2019 61.0 F. 59.0 F.
Thu Mar 14 03:08:05 2019 61.0 F. 59.0 F.
Thu Mar 14 04:08:04 2019 60.0 F. 57.0 F.
Thu Mar 14 05:08:04 2019 61.0 F. 57.9 F.
Thu Mar 14 06:08:05 2019 61.0 F. 60.1 F.
Thu Mar 14 07:08:05 2019 63.0 F. 61.0 F.
Thu Mar 14 08:08:06 2019 64.0 F. 61.0 F.
Thu Mar 14 09:08:05 2019 65.0 F. 59.0 F.
Thu Mar 14 10:08:04 2019 66.0 F. 59.0 F.
Thu Mar 14 11:08:11 2019 68.0 F. 55.0 F.
Thu Mar 14 12:08:06 2019 69.0 F. 50.0 F.
Thu Mar 14 13:08:04 2019 68.0 F. 50.0 F.
Thu Mar 14 14:08:05 2019 69.0 F. 46.9 F.
Thu Mar 14 15:08:05 2019 69.0 F. 45.0 F.
Thu Mar 14 16:08:06 2019 68.0 F. 37.0 F.
Thu Mar 14 17:08:06 2019 62.0 F. 37.9 F.
Thu Mar 14 18:08:05 2019 60.0 F. 37.0 F.
Thu Mar 14 19:08:05 2019 57.0 F. 35.1 F.
Thu Mar 14 20:08:05 2019 54.0 F. 34.0 F.
Thu Mar 14 21:08:05 2019 52.0 F. 33.1 F.
Thu Mar 14 22:08:09 2019 51.0 F. 33.1 F.
Thu Mar 14 23:08:05 2019 49.0 F. 33.1 F.
Fri Mar 15 00:08:04 2019 48.0 F. 32.0 F.
Fri Mar 15 01:08:04 2019 47.0 F. 32.0 F.
Fri Mar 15 02:08:05 2019 47.0 F. 32.0 F.
Fri Mar 15 03:08:05 2019 46.0 F. 32.0 F.
Fri Mar 15 04:08:04 2019 45.0 F. 32.0 F.
Fri Mar 15 05:08:04 2019 45.0 F. 32.0 F.
Fri Mar 15 06:08:05 2019 43.0 F. 32.0 F.
Fri Mar 15 07:08:05 2019 43.0 F. 30.9 F.
Fri Mar 15 08:08:05 2019 42.0 F. 30.9 F.
Fri Mar 15 09:08:05 2019 42.0 F. 30.9 F.
Fri Mar 15 10:08:06 2019 41.0 F. 30.9 F.
Fri Mar 15 11:08:06 2019 41.0 F. 30.0 F.
Fri Mar 15 12:08:04 2019 42.0 F. 28.9 F.
Fri Mar 15 13:08:06 2019 44.0 F. 30.0 F.
Fri Mar 15 14:08:05 2019 47.0 F. 32.0 F.
Fri Mar 15 15:08:05 2019 49.0 F. 30.9 F.
Fri Mar 15 16:08:05 2019 50.0 F. 30.0 F.
Fri Mar 15 17:08:05 2019 50.0 F. 28.0 F.
Fri Mar 15 18:08:05 2019 49.0 F. 27.0 F.
Fri Mar 15 19:08:06 2019 47.0 F. 26.1 F.
Fri Mar 15 20:08:05 2019 44.0 F. 25.0 F.
Fri Mar 15 21:08:06 2019 43.0 F. 24.1 F.
Fri Mar 15 22:08:05 2019 41.0 F. 23.0 F.
Fri Mar 15 23:08:05 2019 40.0 F. 23.0 F.
Sat Mar 16 00:08:06 2019 38.0 F. 24.1 F.
Sat Mar 16 01:08:05 2019 36.0 F. 26.1 F.
Sat Mar 16 02:08:05 2019 36.0 F. 25.0 F.
Sat Mar 16 03:08:05 2019 35.0 F. 25.0 F.
Sat Mar 16 04:08:06 2019 35.0 F. 25.0 F.
Sat Mar 16 05:08:04 2019 35.0 F. 25.0 F.
Sat Mar 16 06:08:05 2019 35.0 F. 24.1 F.
Sat Mar 16 07:08:05 2019 31.0 F. 24.1 F.
Sat Mar 16 08:08:06 2019 33.0 F. 26.1 F.
Sat Mar 16 09:08:04 2019 38.0 F. 27.0 F.
Sat Mar 16 10:08:05 2019 41.0 F. 28.9 F.
Sat Mar 16 11:08:06 2019 43.0 F. 28.0 F.
Sat Mar 16 12:08:05 2019 46.0 F. 28.9 F.
Sat Mar 16 13:08:05 2019 46.0 F. 26.1 F.
Sat Mar 16 14:08:05 2019 48.0 F. 25.0 F.
Sat Mar 16 15:08:05 2019 50.0 F. 26.1 F.
Sat Mar 16 16:08:05 2019 51.0 F. 25.0 F.
Sat Mar 16 17:08:05 2019 51.0 F. 24.1 F.
Sat Mar 16 18:08:05 2019 50.0 F. 21.9 F.
Sat Mar 16 19:08:05 2019 47.0 F. 24.1 F.
Sat Mar 16 20:08:04 2019 44.0 F. 26.1 F.
Sat Mar 16 21:08:05 2019 40.0 F. 30.9 F.
Sat Mar 16 22:08:05 2019 37.0 F. 27.0 F.
Sat Mar 16 23:08:05 2019 37.0 F. 28.0 F.
Sun Mar 17 00:08:05 2019 33.0 F. 27.0 F.
Sun Mar 17 01:08:05 2019 34.0 F. 27.0 F.
Sun Mar 17 02:08:05 2019 35.0 F. 27.0 F.
Sun Mar 17 03:08:05 2019 35.0 F. 25.0 F.
Sun Mar 17 04:08:05 2019 35.0 F. 26.1 F.
Sun Mar 17 05:08:04 2019 36.0 F. 26.1 F.
Sun Mar 17 06:08:05 2019 36.0 F. 27.0 F.
Sun Mar 17 07:08:05 2019 39.0 F. 26.1 F.
Sun Mar 17 08:08:05 2019 39.0 F. 30.0 F.
Sun Mar 17 09:08:05 2019 44.0 F. 30.9 F.
Sun Mar 17 10:08:06 2019 48.0 F. 32.0 F.
Sun Mar 17 11:08:06 2019 50.0 F. 30.0 F.
Sun Mar 17 12:08:05 2019 51.0 F. 30.9 F.
Sun Mar 17 13:08:05 2019 51.0 F. 30.9 F.
Sun Mar 17 14:08:05 2019 52.0 F. 33.1 F.
Sun Mar 17 15:08:05 2019 52.0 F. 32.0 F.
Sun Mar 17 16:08:05 2019 52.0 F. 30.0 F.
Sun Mar 17 17:08:05 2019 51.0 F. 30.9 F.
Sun Mar 17 18:08:05 2019 50.0 F. 30.9 F.
Sun Mar 17 19:08:05 2019 47.0 F. 30.9 F.
Sun Mar 17 20:08:05 2019 45.0 F. 28.9 F.
Sun Mar 17 21:08:05 2019 43.0 F. 28.9 F.
Sun Mar 17 22:08:05 2019 42.0 F. 30.9 F.
Sun Mar 17 23:08:05 2019 38.0 F. 30.9 F.
Mon Mar 18 00:08:05 2019 38.0 F. 30.0 F.
Mon Mar 18 01:08:06 2019 36.0 F. 30.0 F.
Mon Mar 18 02:08:06 2019 33.0 F. 30.9 F.
Mon Mar 18 03:08:05 2019 33.0 F. 30.9 F.
Mon Mar 18 04:08:05 2019 32.0 F. 30.0 F.
Mon Mar 18 05:08:05 2019 33.0 F. 30.9 F.
Mon Mar 18 06:08:05 2019 33.0 F. 30.9 F.
Mon Mar 18 07:08:05 2019 32.0 F. 30.0 F.
Mon Mar 18 08:08:06 2019 33.0 F. 30.9 F.
Mon Mar 18 09:08:05 2019 39.0 F. 32.0 F.
Mon Mar 18 10:08:05 2019 43.0 F. 28.9 F.
Mon Mar 18 11:08:06 2019 46.0 F. 28.0 F.
Mon Mar 18 12:08:05 2019 47.0 F. 26.1 F.
Mon Mar 18 13:08:06 2019 48.0 F. 27.0 F.
Mon Mar 18 14:08:04 2019 50.0 F. 26.1 F.
Mon Mar 18 15:08:04 2019 52.0 F. 26.1 F.
Mon Mar 18 16:08:06 2019 53.0 F. 27.0 F.
Mon Mar 18 17:08:06 2019 51.0 F. 24.1 F.
Mon Mar 18 18:08:05 2019 51.0 F. 25.0 F.
Mon Mar 18 19:08:05 2019 48.0 F. 25.0 F.
Mon Mar 18 20:08:05 2019 45.0 F. 24.1 F.
Mon Mar 18 21:08:05 2019 43.0 F. 26.1 F.
Mon Mar 18 22:08:06 2019 39.0 F. 27.0 F.
Mon Mar 18 23:08:06 2019 38.0 F. 28.0 F.
Tue Mar 19 00:08:05 2019 34.0 F. 30.0 F.
Tue Mar 19 01:08:05 2019 32.0 F. 27.0 F.
Tue Mar 19 02:09:00 2019
Tue Mar 19 03:08:05 2019 30.0 F. 28.0 F.
Tue Mar 19 04:08:05 2019 29.0 F. 26.1 F.
Tue Mar 19 05:08:05 2019 30.0 F. 27.0 F.
Tue Mar 19 06:08:05 2019 30.0 F. 28.0 F.
Tue Mar 19 07:08:04 2019 30.0 F. 28.0 F.
Tue Mar 19 08:08:05 2019 31.0 F. 28.9 F.
Tue Mar 19 09:08:05 2019 36.0 F. 32.0 F.
Tue Mar 19 10:08:04 2019 44.0 F. 30.0 F.
Tue Mar 19 11:08:10 2019 49.0 F. 28.0 F.
Tue Mar 19 12:08:05 2019 51.0 F. 27.0 F.
Tue Mar 19 13:08:05 2019 53.0 F. 26.1 F.
Tue Mar 19 14:08:15 2019 54.0 F. 28.0 F.
Tue Mar 19 15:08:15 2019 55.0 F. 28.0 F.
Tue Mar 19 16:08:15 2019 56.0 F. 28.0 F.
Tue Mar 19 17:08:15 2019 56.0 F. 28.0 F.
Tue Mar 19 18:08:15 2019 55.0 F. 28.0 F.
Tue Mar 19 19:08:15 2019 51.0 F. 30.9 F.
Tue Mar 19 20:08:15 2019 49.0 F. 30.9 F.
Tue Mar 19 21:08:15 2019 48.0 F. 30.0 F.
Tue Mar 19 22:08:15 2019 45.0 F. 28.9 F.
Tue Mar 19 23:08:15 2019 44.0 F. 28.9 F.
Wed Mar 20 00:08:15 2019 44.0 F. 30.0 F.
Wed Mar 20 01:08:15 2019 44.0 F. 30.0 F.
Wed Mar 20 02:08:15 2019 42.0 F. 32.0 F.
Wed Mar 20 03:08:15 2019 44.0 F. 30.0 F.
Wed Mar 20 04:08:15 2019 45.0 F. 28.9 F.
Wed Mar 20 05:08:15 2019 46.0 F. 28.0 F.
Wed Mar 20 06:08:15 2019 45.0 F. 28.0 F.
Wed Mar 20 07:08:15 2019 45.0 F. 27.0 F.
Wed Mar 20 08:08:15 2019 45.0 F. 28.9 F.
Wed Mar 20 09:08:16 2019 44.0 F. 33.1 F.